Time;durP1;ratioP1;P1;durP2;ratioP2;P2;SDS_P1;SDS_P2;PMS_P1;PMS_P2;Temp;Humidity;BMP_temperature;BMP_pressure;BME280_temperature;BME280_humidity;BME280_pressure;Samples;Min_cycle;Max_cycle;Signal;HPM_P1;HPM_P2
2021/10/21 02:30:18;;;;;;;5.40;4.50;;;16.00;99.90;;;;;;5049567;28;20999;-83
2021/10/21 02:32:44;;;;;;;4.82;4.30;;;16.00;99.90;;;;;;5048861;28;20870;-85
2021/10/21 02:35:11;;;;;;;4.45;4.05;;;16.10;99.90;;;;;;5048609;28;20403;-83
2021/10/21 02:37:38;;;;;;;5.35;4.28;;;16.10;99.90;;;;;;5048772;28;20415;-83
2021/10/21 02:40:07;;;;;;;5.35;3.90;;;16.10;99.90;;;;;;5048819;28;20406;-84
2021/10/21 02:42:33;;;;;;;4.65;3.80;;;16.00;99.90;;;;;;5049543;28;20391;-82
2021/10/21 02:44:58;;;;;;;5.80;3.80;;;16.10;99.90;;;;;;5049834;28;20368;-83
2021/10/21 02:47:24;;;;;;;5.17;3.67;;;16.10;99.90;;;;;;5048267;28;20388;-83
2021/10/21 02:49:49;;;;;;;3.88;3.42;;;16.10;99.90;;;;;;5050582;28;20384;-83
2021/10/21 02:52:15;;;;;;;4.20;3.27;;;16.10;99.90;;;;;;5050628;28;20392;-82
2021/10/21 02:54:41;;;;;;;4.25;3.20;;;16.20;99.90;;;;;;5050850;28;20404;-85
2021/10/21 02:57:06;;;;;;;3.60;3.30;;;16.20;99.90;;;;;;5050955;28;21153;-82
2021/10/21 02:59:32;;;;;;;4.72;3.10;;;16.20;99.90;;;;;;5049564;28;20893;-82
2021/10/21 03:01:58;;;;;;;3.27;2.97;;;16.20;99.90;;;;;;5049218;28;20470;-84
2021/10/21 03:04:24;;;;;;;5.38;3.33;;;16.20;99.90;;;;;;5054490;28;21215;-84
2021/10/21 03:06:49;;;;;;;5.38;2.90;;;16.20;99.90;;;;;;5049559;28;20385;-84
2021/10/21 03:09:15;;;;;;;3.63;3.30;;;16.20;99.90;;;;;;5050297;28;20378;-83
2021/10/21 03:11:40;;;;;;;4.13;3.10;;;16.20;99.90;;;;;;5049904;28;20368;-86
2021/10/21 03:14:06;;;;;;;3.77;3.07;;;16.20;99.90;;;;;;5050152;28;20373;-85
2021/10/21 03:16:35;;;;;;;3.90;2.70;;;16.20;99.90;;;;;;5049220;28;20384;-84
2021/10/21 03:19:04;;;;;;;3.25;2.60;;;16.20;99.90;;;;;;5049952;28;20464;-84
2021/10/21 03:21:30;;;;;;;5.50;2.90;;;16.20;99.90;;;;;;5049442;28;20410;-84
2021/10/21 03:23:56;;;;;;;3.60;2.43;;;16.20;99.90;;;;;;5048390;28;20427;-84
2021/10/21 03:26:22;;;;;;;3.33;2.70;;;16.10;99.90;;;;;;5048469;28;20997;-83
2021/10/21 03:28:48;;;;;;;4.00;2.88;;;16.20;99.90;;;;;;5049066;28;20868;-84
2021/10/21 03:31:14;;;;;;;4.53;2.70;;;16.10;99.90;;;;;;5050464;28;20376;-82
2021/10/21 03:33:39;;;;;;;3.20;2.47;;;16.10;99.90;;;;;;5049940;28;20469;-84
2021/10/21 03:36:05;;;;;;;3.10;2.50;;;16.20;99.90;;;;;;5049208;28;20418;-83
2021/10/21 03:38:32;;;;;;;2.77;2.57;;;16.20;99.90;;;;;;5049074;28;20410;-83
2021/10/21 03:40:58;;;;;;;2.92;2.47;;;16.20;99.90;;;;;;5049943;28;20395;-85
2021/10/21 03:43:24;;;;;;;4.75;2.60;;;16.30;99.90;;;;;;5050439;28;20400;-84
2021/10/21 03:45:50;;;;;;;2.93;2.43;;;16.20;99.90;;;;;;5048842;28;20455;-84
2021/10/21 03:48:16;;;;;;;4.13;2.58;;;16.30;99.90;;;;;;5049909;28;20834;-85
2021/10/21 03:50:42;;;;;;;3.88;2.42;;;16.30;99.90;;;;;;5049613;28;20390;-86
2021/10/21 03:53:11;;;;;;;3.23;2.50;;;16.30;99.90;;;;;;5048833;28;20758;-84
2021/10/21 03:55:38;;;;;;;3.92;2.50;;;16.30;99.90;;;;;;5048588;28;20392;-83
2021/10/21 03:58:04;;;;;;;2.90;2.20;;;16.30;99.90;;;;;;5048702;28;20387;-82
2021/10/21 04:00:30;;;;;;;4.50;2.15;;;16.30;99.90;;;;;;5050045;28;20410;-85
2021/10/21 04:02:55;;;;;;;4.90;2.33;;;16.30;99.90;;;;;;5048247;28;20553;-85
2021/10/21 04:05:22;;;;;;;5.30;2.35;;;16.30;99.90;;;;;;5049187;28;20581;-83
2021/10/21 04:07:48;;;;;;;3.25;2.25;;;16.30;99.90;;;;;;5048015;28;20742;-84
2021/10/21 04:10:14;;;;;;;4.40;2.40;;;16.30;99.90;;;;;;5049092;28;20398;-85
2021/10/21 04:12:40;;;;;;;5.70;2.80;;;16.30;99.90;;;;;;5050142;28;20360;-85
2021/10/21 04:15:06;;;;;;;4.35;2.70;;;16.20;99.90;;;;;;5049122;28;20376;-85
2021/10/21 04:17:33;;;;;;;3.35;2.30;;;16.00;99.90;;;;;;5049365;28;20387;-86
2021/10/21 04:19:59;;;;;;;3.03;2.05;;;15.80;99.90;;;;;;5049648;28;20964;-82
2021/10/21 04:22:24;;;;;;;4.43;2.13;;;15.70;99.90;;;;;;5050067;28;20443;-84
2021/10/21 04:24:50;;;;;;;2.10;1.90;;;15.60;99.90;;;;;;5047592;28;20384;-81
2021/10/21 04:27:17;;;;;;;3.87;2.00;;;15.50;99.90;;;;;;5047335;28;20387;-84
2021/10/21 04:29:43;;;;;;;4.10;1.80;;;15.50;99.90;;;;;;5047888;28;20368;-83
2021/10/21 04:32:09;;;;;;;3.05;1.80;;;15.40;99.90;;;;;;5049128;28;20391;-85
2021/10/21 04:34:35;;;;;;;2.20;1.60;;;15.40;99.90;;;;;;5052429;28;20407;-82
2021/10/21 04:37:01;;;;;;;2.45;1.58;;;15.30;99.90;;;;;;5052532;28;20904;-84
2021/10/21 04:39:26;;;;;;;2.10;1.48;;;15.30;99.90;;;;;;5053219;28;20884;-80
2021/10/21 04:41:52;;;;;;;2.40;1.40;;;15.30;99.90;;;;;;5051956;28;20378;-83
2021/10/21 04:44:18;;;;;;;2.95;1.33;;;15.30;99.90;;;;;;5053361;28;20398;-82
2021/10/21 04:46:43;;;;;;;4.53;1.50;;;15.30;99.90;;;;;;5052359;28;21125;-84
2021/10/21 04:49:09;;;;;;;1.90;1.40;;;15.40;99.90;;;;;;5052895;28;20433;-82
2021/10/21 04:51:34;;;;;;;2.10;1.10;;;15.40;99.90;;;;;;5053720;28;20877;-84
2021/10/21 04:54:00;;;;;;;2.10;1.50;;;15.40;99.90;;;;;;5053568;28;20364;-83
2021/10/21 04:56:26;;;;;;;2.50;1.40;;;15.40;99.90;;;;;;5052730;28;20418;-85
2021/10/21 04:58:51;;;;;;;2.22;1.40;;;15.40;99.90;;;;;;5053199;28;20379;-82
2021/10/21 05:01:17;;;;;;;2.30;1.33;;;15.50;99.90;;;;;;5053508;28;20957;-83
2021/10/21 05:03:42;;;;;;;3.85;1.40;;;15.40;99.90;;;;;;5052730;28;20399;-85
2021/10/21 05:06:08;;;;;;;2.03;1.30;;;15.40;99.90;;;;;;5053220;28;20804;-83
2021/10/21 05:08:33;;;;;;;2.53;1.47;;;15.40;99.90;;;;;;5051805;28;20429;-82
2021/10/21 05:10:59;;;;;;;2.47;1.37;;;15.40;99.90;;;;;;5052059;28;20382;-81
2021/10/21 05:13:25;;;;;;;3.40;1.30;;;15.40;99.90;;;;;;5054234;28;20380;-85
2021/10/21 05:15:50;;;;;;;4.43;1.50;;;15.40;99.90;;;;;;5053691;28;20424;-84
2021/10/21 05:18:16;;;;;;;2.70;1.50;;;15.40;99.90;;;;;;5053264;28;20384;-82
2021/10/21 05:20:41;;;;;;;2.70;1.40;;;15.40;99.90;;;;;;5053138;28;20387;-81
2021/10/21 05:23:07;;;;;;;2.40;1.50;;;15.40;99.90;;;;;;5050252;28;20406;-87
2021/10/21 05:25:33;;;;;;;3.97;1.38;;;15.40;99.90;;;;;;5050189;28;20438;-82
2021/10/21 05:27:59;;;;;;;4.27;1.60;;;15.40;99.90;;;;;;5050310;28;20380;-81
2021/10/21 05:30:25;;;;;;;3.17;1.43;;;15.40;99.90;;;;;;5051102;28;20535;-82
2021/10/21 05:32:50;;;;;;;1.67;1.47;;;15.40;99.90;;;;;;5050518;28;20462;-83
2021/10/21 05:35:16;;;;;;;5.03;1.50;;;15.40;99.90;;;;;;5049673;28;20464;-81
2021/10/21 05:37:42;;;;;;;3.03;1.50;;;15.40;99.90;;;;;;5050340;28;20383;-84
2021/10/21 05:40:08;;;;;;;3.15;1.45;;;15.40;99.90;;;;;;5049793;28;20745;-85
2021/10/21 05:42:33;;;;;;;3.20;1.40;;;15.40;99.90;;;;;;5049796;28;20376;-82
2021/10/21 05:44:59;;;;;;;2.20;1.37;;;15.40;99.90;;;;;;5048994;28;20410;-82
2021/10/21 05:47:25;;;;;;;2.78;1.30;;;15.50;99.90;;;;;;5050844;28;20386;-82
2021/10/21 05:49:51;;;;;;;2.40;1.40;;;15.50;99.90;;;;;;5049502;28;20399;-82
2021/10/21 05:52:19;;;;;;;3.03;1.13;;;15.60;99.90;;;;;;5051407;28;20437;-84
2021/10/21 05:54:45;;;;;;;1.52;1.40;;;15.70;99.90;;;;;;5051497;28;20905;-80
2021/10/21 05:57:10;;;;;;;4.47;1.30;;;15.70;99.90;;;;;;5050007;28;20376;-81
2021/10/21 05:59:36;;;;;;;2.28;1.10;;;15.80;99.90;;;;;;5051433;28;20384;-84
2021/10/21 06:02:02;;;;;;;2.43;1.43;;;15.90;99.90;;;;;;5051304;28;20916;-83
2021/10/21 06:04:27;;;;;;;2.33;1.35;;;16.00;99.90;;;;;;5050522;28;20500;-83
2021/10/21 06:06:53;;;;;;;4.00;1.50;;;16.10;99.90;;;;;;5043390;28;20385;-84
2021/10/21 06:09:21;;;;;;;5.93;1.43;;;16.10;99.90;;;;;;5031190;28;20782;-82
2021/10/21 06:11:46;;;;;;;6.35;1.70;;;16.10;99.90;;;;;;5032724;28;20374;-81
2021/10/21 06:14:12;;;;;;;3.55;1.48;;;16.20;99.90;;;;;;5037676;28;20387;-83
2021/10/21 06:16:38;;;;;;;5.87;1.63;;;16.10;99.90;;;;;;5051392;28;20779;-84
2021/10/21 06:19:04;;;;;;;4.17;1.23;;;16.10;99.90;;;;;;5049407;28;20392;-82
2021/10/21 06:21:30;;;;;;;3.38;1.20;;;16.10;99.90;;;;;;5049608;28;20388;-84
2021/10/21 06:23:56;;;;;;;6.90;1.40;;;16.10;99.90;;;;;;5050895;28;20403;-83
2021/10/21 06:26:21;;;;;;;1.90;1.20;;;16.10;99.90;;;;;;5051095;28;20463;-83
2021/10/21 06:28:51;;;;;;;3.40;1.17;;;16.10;99.90;;;;;;5050580;28;20953;-84
2021/10/21 06:31:18;;;;;;;2.25;1.05;;;16.10;99.90;;;;;;5050880;28;20799;-82
2021/10/21 06:33:44;;;;;;;3.63;1.23;;;16.00;99.90;;;;;;5050277;28;20463;-83
2021/10/21 06:36:10;;;;;;;1.38;1.17;;;16.10;99.90;;;;;;5049459;28;20904;-84
2021/10/21 06:38:37;;;;;;;3.58;1.20;;;16.00;99.90;;;;;;5049876;28;20372;-83
2021/10/21 06:41:03;;;;;;;6.15;1.27;;;16.00;99.90;;;;;;5051528;28;20386;-84
2021/10/21 06:43:29;;;;;;;2.80;1.10;;;16.00;99.90;;;;;;5050651;28;20403;-84
2021/10/21 06:45:54;;;;;;;4.90;1.10;;;16.00;99.90;;;;;;5050426;28;20437;-82
2021/10/21 06:48:20;;;;;;;8.47;1.50;;;16.00;99.90;;;;;;5050538;28;20788;-81
2021/10/21 06:50:46;;;;;;;8.77;1.40;;;16.00;99.90;;;;;;5050926;28;20431;-83
2021/10/21 06:53:12;;;;;;;5.28;1.35;;;16.00;99.90;;;;;;5049078;28;20395;-80
2021/10/21 06:55:37;;;;;;;6.30;1.40;;;16.00;99.90;;;;;;5048833;28;20441;-82
2021/10/21 06:58:03;;;;;;;7.97;1.60;;;16.00;99.90;;;;;;5049295;28;21088;-81
2021/10/21 07:00:36;;;;;;;4.73;1.40;;;16.10;99.90;;;;;;5049719;28;20399;-82
2021/10/21 07:03:01;;;;;;;9.93;1.70;;;16.10;99.90;;;;;;5049383;28;20404;-82
2021/10/21 07:05:28;;;;;;;6.68;1.20;;;16.10;99.90;;;;;;5051210;28;20373;-82
2021/10/21 07:07:54;;;;;;;7.03;1.70;;;16.10;99.90;;;;;;5050534;28;20727;-83
2021/10/21 07:10:22;;;;;;;8.63;1.70;;;16.00;99.90;;;;;;5050746;28;20391;-83
2021/10/21 07:12:47;;;;;;;18.33;2.10;;;16.00;99.90;;;;;;5050218;28;20384;-82
2021/10/21 07:15:15;;;;;;;7.63;1.17;;;16.00;99.90;;;;;;5049670;28;20893;-82
2021/10/21 07:17:41;;;;;;;8.55;1.40;;;16.10;99.90;;;;;;5050997;28;20376;-82
2021/10/21 07:20:08;;;;;;;10.13;1.20;;;16.20;99.90;;;;;;5049461;28;20391;-85
2021/10/21 07:22:33;;;;;;;7.43;1.40;;;16.20;99.90;;;;;;5051160;28;20375;-83
2021/10/21 07:24:59;;;;;;;12.70;1.90;;;16.20;99.90;;;;;;5050526;28;20368;-84
2021/10/21 07:27:25;;;;;;;8.68;1.33;;;16.10;99.90;;;;;;5049998;28;20896;-83
2021/10/21 07:29:51;;;;;;;11.90;1.90;;;16.10;99.90;;;;;;5050772;28;20480;-79
2021/10/21 07:32:17;;;;;;;8.83;2.07;;;16.10;99.90;;;;;;5050503;28;20383;-84
2021/10/21 07:34:43;;;;;;;9.07;2.00;;;16.20;99.90;;;;;;5050413;28;20380;-84
2021/10/21 07:37:12;;;;;;;7.88;1.50;;;16.20;99.90;;;;;;5050476;28;20403;-83
2021/10/21 07:39:39;;;;;;;8.77;1.88;;;16.20;99.90;;;;;;5049550;28;20392;-83
2021/10/21 07:42:05;;;;;;;6.38;1.50;;;16.30;99.90;;;;;;5050204;28;20380;-84
2021/10/21 07:44:34;;;;;;;8.77;2.15;;;16.30;99.90;;;;;;5048943;28;20453;-81
2021/10/21 07:47:01;;;;;;;6.28;1.50;;;16.30;99.90;;;;;;5048299;28;20423;-81
2021/10/21 07:49:27;;;;;;;8.10;1.60;;;16.30;99.90;;;;;;5029857;28;20444;-81
2021/10/21 07:51:53;;;;;;;6.68;1.35;;;16.20;99.90;;;;;;5041639;28;20379;-82
2021/10/21 07:54:18;;;;;;;9.17;1.87;;;16.20;99.90;;;;;;5048135;28;20870;-83
2021/10/21 07:56:45;;;;;;;6.93;1.55;;;16.10;99.90;;;;;;5047097;28;20877;-84
2021/10/21 07:59:10;;;;;;;9.07;1.58;;;16.20;99.90;;;;;;5048000;28;20379;-81
2021/10/21 08:01:36;;;;;;;10.57;1.80;;;16.30;99.90;;;;;;5048606;28;20375;-80
2021/10/21 08:04:01;;;;;;;6.93;1.30;;;16.20;99.90;;;;;;5048497;28;20399;-82
2021/10/21 08:06:29;;;;;;;8.03;1.50;;;16.20;99.90;;;;;;5048796;28;20788;-82
2021/10/21 08:08:56;;;;;;;6.55;1.40;;;16.10;99.90;;;;;;5051906;28;20391;-81
2021/10/21 08:11:22;;;;;;;7.90;1.48;;;16.20;99.90;;;;;;5052339;28;20380;-82
2021/10/21 08:13:47;;;;;;;7.45;1.30;;;16.20;99.90;;;;;;5052144;28;20449;-80
2021/10/21 08:16:13;;;;;;;6.00;1.23;;;16.20;99.90;;;;;;5050832;28;20826;-83
2021/10/21 08:18:38;;;;;;;8.10;1.30;;;16.30;99.90;;;;;;5051115;28;20372;-81
2021/10/21 08:21:04;;;;;;;4.97;1.42;;;16.20;99.90;;;;;;5052215;28;20494;-83
2021/10/21 08:23:30;;;;;;;7.50;1.50;;;16.20;99.90;;;;;;5038064;28;20490;-83
2021/10/21 08:25:55;;;;;;;5.80;1.30;;;16.20;99.90;;;;;;5045034;28;20395;-85
2021/10/21 08:28:21;;;;;;;5.57;1.13;;;16.20;99.90;;;;;;5048431;28;20399;-84
2021/10/21 08:30:47;;;;;;;10.23;2.00;;;16.10;99.90;;;;;;5048584;28;20383;-84
2021/10/21 08:33:14;;;;;;;5.55;1.50;;;15.90;99.90;;;;;;5048860;28;20403;-83
2021/10/21 08:35:40;;;;;;;4.45;1.38;;;15.80;99.90;;;;;;5048725;28;20463;-83
2021/10/21 08:38:06;;;;;;;5.72;1.65;;;15.70;99.90;;;;;;5048413;28;20396;-82
2021/10/21 08:40:34;;;;;;;7.05;1.40;;;15.50;99.90;;;;;;5048373;28;20398;-83
2021/10/21 08:43:07;;;;;;;9.70;1.70;;;15.40;99.90;;;;;;5049125;28;20497;-84
2021/10/21 08:45:34;;;;;;;5.38;1.20;;;15.20;99.90;;;;;;5048848;28;20395;-85
2021/10/21 08:48:03;;;;;;;4.20;1.70;;;15.10;99.90;;;;;;5048998;28;20383;-81
2021/10/21 08:50:32;;;;;;;6.93;1.40;;;15.20;99.90;;;;;;5049082;28;20384;-82
2021/10/21 08:52:58;;;;;;;6.20;1.10;;;15.30;99.90;;;;;;5050189;28;20515;-83
2021/10/21 08:55:23;;;;;;;5.80;1.50;;;15.40;99.90;;;;;;5051852;28;20463;-83
2021/10/21 08:57:49;;;;;;;7.47;1.63;;;15.50;99.90;;;;;;5036089;28;20392;-84
2021/10/21 09:00:15;;;;;;;9.02;1.33;;;15.60;99.90;;;;;;5050506;28;20430;-84
2021/10/21 09:02:49;;;;;;;8.67;1.50;;;15.70;99.90;;;;;;5052221;28;20383;-83
2021/10/21 09:05:48;;;;;;;7.38;1.20;;;15.70;99.90;;;;;;5051914;28;20391;-84
2021/10/21 09:08:18;;;;;;;11.55;1.70;;;15.80;99.90;;;;;;5051079;28;20384;-80
2021/10/21 09:10:46;;;;;;;7.07;1.30;;;15.90;99.90;;;;;;5052342;28;20418;-83
2021/10/21 09:13:25;;;;;;;8.43;1.27;;;15.90;99.90;;;;;;5051599;28;20419;-82
2021/10/21 09:15:56;;;;;;;11.32;1.40;;;16.00;99.90;;;;;;5050626;28;20387;-81
2021/10/21 09:18:42;;;;;;;7.38;1.27;;;16.10;99.90;;;;;;5049129;28;20950;-82
2021/10/21 09:21:07;;;;;;;9.93;1.33;;;16.10;99.90;;;;;;5050277;28;20885;-82
2021/10/21 09:23:33;;;;;;;5.35;1.20;;;16.00;99.90;;;;;;5051192;28;20413;-82
2021/10/21 09:26:10;;;;;;;8.80;1.80;;;16.00;99.90;;;;;;5050345;28;20430;-82
2021/10/21 09:28:37;;;;;;;16.95;2.05;;;16.00;99.90;;;;;;5049960;28;20387;-86
2021/10/21 09:31:08;;;;;;;8.55;1.30;;;15.90;99.90;;;;;;5051053;28;20387;-84
2021/10/21 09:33:51;;;;;;;9.57;1.40;;;15.90;99.90;;;;;;5034902;28;20382;-84
2021/10/21 09:36:22;;;;;;;10.30;1.50;;;15.90;99.90;;;;;;5031552;28;20708;-86
2021/10/21 09:38:57;;;;;;;12.60;2.33;;;15.90;99.90;;;;;;5047841;28;20404;-84
2021/10/21 09:41:26;;;;;;;9.48;1.73;;;15.90;99.90;;;;;;5044574;28;20384;-84
2021/10/21 09:43:53;;;;;;;12.82;1.58;;;16.00;99.90;;;;;;5046386;28;20415;-84
2021/10/21 09:46:42;;;;;;;8.63;1.60;;;16.00;99.90;;;;;;5044089;28;20463;-86
2021/10/21 09:49:18;;;;;;;10.82;1.70;;;16.00;99.90;;;;;;5046134;28;20468;-86
2021/10/21 09:51:45;;;;;;;7.53;1.55;;;16.10;99.90;;;;;;5044357;28;20395;-85
2021/10/21 09:54:11;;;;;;;11.00;1.90;;;16.10;99.90;;;;;;5044785;28;20396;-84
2021/10/21 09:57:00;;;;;;;9.43;1.73;;;16.00;99.90;;;;;;5046545;28;20472;-85
2021/10/21 09:59:31;;;;;;;10.60;1.27;;;15.90;99.90;;;;;;5044360;28;20465;-83
2021/10/21 10:02:06;;;;;;;7.90;1.35;;;15.80;99.90;;;;;;5045519;28;20388;-84
2021/10/21 10:04:33;;;;;;;15.88;2.08;;;15.70;99.90;;;;;;5044324;28;20419;-86
2021/10/21 10:07:00;;;;;;;12.02;1.33;;;15.70;99.90;;;;;;5044711;28;21146;-85
2021/10/21 10:09:31;;;;;;;6.85;1.10;;;15.80;99.90;;;;;;5045145;28;20478;-84
2021/10/21 10:12:01;;;;;;;7.85;1.17;;;15.80;99.90;;;;;;5043740;28;20536;-85
2021/10/21 10:14:27;;;;;;;8.73;2.07;;;15.80;99.90;;;;;;5041832;28;20519;-83
2021/10/21 10:16:53;;;;;;;9.87;1.30;;;15.80;99.90;;;;;;5044243;28;21282;-83
2021/10/21 10:19:19;;;;;;;10.02;1.27;;;15.70;99.90;;;;;;5047528;28;20920;-85
2021/10/21 10:21:50;;;;;;;7.83;1.03;;;15.70;99.90;;;;;;5046245;28;20777;-80
2021/10/21 10:24:16;;;;;;;5.75;1.10;;;15.50;99.90;;;;;;5046389;28;20410;-82
2021/10/21 10:26:55;;;;;;;6.50;1.20;;;15.30;99.90;;;;;;5044766;28;20396;-81
2021/10/21 10:29:36;;;;;;;5.00;1.10;;;15.20;99.90;;;;;;5045004;28;20827;-83
2021/10/21 10:32:05;;;;;;;6.63;0.75;;;14.80;99.90;;;;;;5044209;28;20388;-82
2021/10/21 10:34:33;;;;;;;7.87;1.20;;;14.70;99.90;;;;;;5042512;28;20807;-82
2021/10/21 10:37:16;;;;;;;6.20;1.13;;;14.20;99.90;;;;;;5042070;28;20542;-85
2021/10/21 10:39:46;;;;;;;4.47;0.90;;;13.80;99.90;;;;;;5041929;28;20400;-84
2021/10/21 10:42:16;;;;;;;4.13;1.02;;;13.40;99.90;;;;;;5041656;28;20456;-81
2021/10/21 10:44:41;;;;;;;2.92;0.80;;;13.20;99.90;;;;;;5042739;28;20498;-80
2021/10/21 10:47:09;;;;;;;2.35;0.50;;;13.20;99.90;;;;;;5043328;28;20786;-82
2021/10/21 10:49:38;;;;;;;2.60;0.70;;;13.30;99.90;;;;;;5043999;28;20470;-82
2021/10/21 10:52:10;;;;;;;1.92;0.50;;;13.20;99.90;;;;;;5045210;28;20410;-83
2021/10/21 10:54:51;;;;;;;2.72;0.80;;;13.30;99.90;;;;;;5044850;28;20886;-84
2021/10/21 10:57:26;;;;;;;4.13;0.80;;;13.40;99.90;;;;;;5044935;28;20788;-83
2021/10/21 10:59:55;;;;;;;4.75;0.80;;;13.40;99.90;;;;;;5045500;28;20943;-83
2021/10/21 11:02:31;;;;;;;3.13;0.73;;;13.30;99.90;;;;;;5045995;28;20387;-83
2021/10/21 11:05:02;;;;;;;3.75;0.90;;;13.30;99.90;;;;;;5041942;28;20833;-83
2021/10/21 11:07:49;;;;;;;3.42;0.80;;;13.40;99.90;;;;;;5043459;28;20869;-83
2021/10/21 11:10:19;;;;;;;3.25;1.17;;;13.60;99.90;;;;;;5045816;28;20380;-84
2021/10/21 11:12:46;;;;;;;3.70;0.90;;;13.80;99.90;;;;;;5044523;28;20402;-84
2021/10/21 11:15:32;;;;;;;5.15;0.80;;;14.10;99.90;;;;;;5045982;28;21279;-83
2021/10/21 11:18:03;;;;;;;3.05;0.60;;;14.30;99.90;;;;;;5046410;28;20387;-85
2021/10/21 11:20:31;;;;;;;3.75;0.80;;;14.20;99.90;;;;;;5044677;28;20388;-84
2021/10/21 11:22:59;;;;;;;2.35;0.60;;;13.80;99.90;;;;;;5045191;28;20489;-82
2021/10/21 11:25:26;;;;;;;2.38;0.73;;;13.70;99.90;;;;;;5045013;28;20742;-85
2021/10/21 11:27:53;;;;;;;1.77;1.17;;;13.60;99.90;;;;;;5044513;28;20407;-82
2021/10/21 11:30:27;;;;;;;0.88;0.65;;;13.50;99.90;;;;;;5047136;28;20475;-83
2021/10/21 11:32:54;;;;;;;3.13;0.50;;;13.30;99.90;;;;;;5047660;28;20457;-82
2021/10/21 11:35:22;;;;;;;3.75;0.65;;;13.40;99.90;;;;;;5034915;28;20404;-84
2021/10/21 11:37:54;;;;;;;1.48;0.50;;;13.30;99.90;;;;;;5045562;28;20384;-82
2021/10/21 11:40:36;;;;;;;1.27;0.60;;;13.30;99.90;;;;;;5044712;28;20383;-82
2021/10/21 11:43:06;;;;;;;1.48;0.63;;;13.30;99.90;;;;;;5045110;28;20493;-85
2021/10/21 11:45:40;;;;;;;0.80;0.60;;;13.30;99.90;;;;;;5045156;28;20482;-84
2021/10/21 11:48:07;;;;;;;2.60;0.67;;;13.30;99.90;;;;;;5051233;28;20475;-83
2021/10/21 11:50:41;;;;;;;1.48;0.75;;;13.40;99.90;;;;;;5046027;28;20913;-82
2021/10/21 11:53:08;;;;;;;2.80;0.80;;;13.40;99.90;;;;;;5044489;28;20388;-82
2021/10/21 11:55:35;;;;;;;3.25;1.08;;;13.50;99.90;;;;;;5045532;28;20529;-84
2021/10/21 11:58:10;;;;;;;2.60;1.10;;;13.40;99.90;;;;;;5044583;28;20878;-80
2021/10/21 12:00:35;;;;;;;4.32;0.93;;;13.30;99.90;;;;;;5045661;28;20384;-81
2021/10/21 12:03:02;;;;;;;6.97;0.90;;;13.30;99.90;;;;;;5046314;28;20400;-82
2021/10/21 12:05:30;;;;;;;3.83;0.93;;;13.50;99.90;;;;;;5043987;28;20395;-83
2021/10/21 12:07:57;;;;;;;4.10;0.85;;;13.60;99.90;;;;;;5045482;28;20383;-83
2021/10/21 12:10:46;;;;;;;1.83;0.82;;;13.60;99.90;;;;;;5045282;28;20949;-83
2021/10/21 12:13:41;;;;;;;3.88;0.93;;;13.70;99.90;;;;;;5044922;28;20376;-85
2021/10/21 12:16:14;;;;;;;4.88;1.20;;;13.60;99.90;;;;;;5030274;28;20437;-85
2021/10/21 12:18:42;;;;;;;2.22;1.10;;;13.40;99.90;;;;;;5042911;28;20393;-82
2021/10/21 12:21:09;;;;;;;6.35;1.27;;;13.50;99.90;;;;;;5044784;28;20387;-81
2021/10/21 12:23:45;;;;;;;4.45;1.30;;;13.50;99.90;;;;;;5042695;28;20407;-84
2021/10/21 12:26:20;;;;;;;7.30;1.52;;;13.50;99.90;;;;;;5040958;28;20427;-82
2021/10/21 12:28:48;;;;;;;3.72;1.20;;;13.40;99.90;;;;;;5034354;28;20812;-82
2021/10/21 12:31:23;;;;;;;7.53;1.60;;;13.50;99.90;;;;;;5040023;28;20401;-82
2021/10/21 12:34:20;;;;;;;4.68;1.30;;;13.60;99.90;;;;;;5038285;28;21590;-81
2021/10/21 12:36:48;;;;;;;10.30;1.80;;;13.60;99.90;;;;;;5038545;28;20384;-83
2021/10/21 12:39:16;;;;;;;6.83;1.47;;;13.90;99.90;;;;;;5039617;28;20395;-83
2021/10/21 12:41:57;;;;;;;8.00;1.98;;;14.10;99.90;;;;;;5041273;28;20457;-83
2021/10/21 12:44:26;;;;;;;5.78;1.30;;;14.10;99.90;;;;;;5036617;28;20785;-82
2021/10/21 12:47:12;;;;;;;6.17;1.37;;;13.90;99.90;;;;;;5039786;28;20425;-81
2021/10/21 12:49:38;;;;;;;4.03;1.17;;;13.80;99.90;;;;;;5037484;28;20374;-82
2021/10/21 12:52:06;;;;;;;8.68;1.70;;;13.90;99.90;;;;;;5036055;28;20419;-83
2021/10/21 12:54:32;;;;;;;4.55;1.15;;;13.80;99.90;;;;;;5053068;28;20383;-81
2021/10/21 12:56:59;;;;;;;6.78;1.38;;;13.80;99.90;;;;;;5046931;28;20389;-82
2021/10/21 12:59:31;;;;;;;14.25;2.22;;;13.80;99.90;;;;;;5041507;28;20400;-83
2021/10/21 13:02:02;;;;;;;7.93;1.85;;;13.90;99.90;;;;;;5033557;28;20681;-83
2021/10/21 13:04:59;;;;;;;8.52;1.75;;;13.90;99.90;;;;;;5042350;28;20891;-84
2021/10/21 13:07:26;;;;;;;5.47;1.87;;;13.90;99.90;;;;;;5037129;28;20395;-83
2021/10/21 13:09:54;;;;;;;5.95;1.60;;;13.90;99.90;;;;;;5040170;28;20470;-82
2021/10/21 13:12:21;;;;;;;5.67;1.60;;;14.20;99.90;;;;;;5038910;28;20395;-84
2021/10/21 13:14:49;;;;;;;4.90;1.60;;;14.50;99.90;;;;;;5039879;28;20377;-83
2021/10/21 13:17:15;;;;;;;6.95;1.45;;;14.50;99.90;;;;;;5044549;28;20893;-84
2021/10/21 13:19:41;;;;;;;6.70;1.70;;;14.30;99.90;;;;;;5041071;28;20384;-83
2021/10/21 13:22:07;;;;;;;7.35;1.90;;;14.10;99.90;;;;;;5045366;28;20384;-83
2021/10/21 13:24:34;;;;;;;7.68;1.52;;;14.00;99.90;;;;;;5041892;28;20435;-82
2021/10/21 13:27:02;;;;;;;5.32;1.65;;;14.00;99.90;;;;;;5046362;28;20390;-82
2021/10/21 13:29:29;;;;;;;10.65;1.88;;;14.00;99.90;;;;;;5045816;28;20449;-83
2021/10/21 13:32:00;;;;;;;6.43;1.63;;;13.60;99.90;;;;;;5035531;28;20378;-83
2021/10/21 13:34:26;;;;;;;8.15;1.75;;;13.40;99.90;;;;;;5041527;28;20432;-86
2021/10/21 13:36:54;;;;;;;5.13;1.90;;;13.20;99.90;;;;;;5045260;28;20411;-84
2021/10/21 13:39:19;;;;;;;6.75;2.00;;;12.90;99.90;;;;;;5042878;28;20406;-83
2021/10/21 13:41:45;;;;;;;5.85;1.90;;;12.70;99.90;;;;;;5040219;28;20389;-83
2021/10/21 13:44:11;;;;;;;8.37;2.10;;;12.50;99.90;;;;;;5042878;28;20409;-85
2021/10/21 13:46:37;;;;;;;7.35;2.00;;;12.40;99.90;;;;;;5048327;28;20849;-84
2021/10/21 13:49:03;;;;;;;6.13;2.13;;;12.20;99.90;;;;;;5054231;28;20370;-86
2021/10/21 13:51:32;;;;;;;4.50;1.97;;;11.90;99.90;;;;;;5043151;28;20386;-83
2021/10/21 13:53:58;;;;;;;8.13;2.35;;;11.90;99.90;;;;;;5047039;28;20388;-84
2021/10/21 13:56:24;;;;;;;6.87;2.00;;;11.80;99.90;;;;;;5044392;28;20397;-86
2021/10/21 13:58:49;;;;;;;2.53;1.02;;;11.70;99.90;;;;;;5041600;28;20393;-84
2021/10/21 14:01:21;;;;;;;3.78;0.90;;;11.60;99.90;;;;;;5040605;28;20403;-83
2021/10/21 14:03:47;;;;;;;3.38;1.30;;;11.50;99.90;;;;;;5047289;28;20508;-84
2021/10/21 14:06:12;;;;;;;3.63;0.93;;;11.30;99.90;;;;;;5039669;28;20481;-83
2021/10/21 14:08:38;;;;;;;2.20;0.88;;;11.20;99.90;;;;;;5039960;28;20440;-85
2021/10/21 14:11:04;;;;;;;2.90;0.93;;;11.20;99.90;;;;;;5033998;28;20377;-84
2021/10/21 14:13:30;;;;;;;3.40;0.90;;;11.30;99.90;;;;;;5041486;28;20371;-84
2021/10/21 14:15:56;;;;;;;2.03;1.00;;;11.50;99.90;;;;;;5043899;28;20934;-84
2021/10/21 14:18:21;;;;;;;3.05;0.93;;;11.80;99.90;;;;;;5045156;28;20880;-84
2021/10/21 14:20:47;;;;;;;2.20;0.80;;;11.90;99.90;;;;;;5039059;28;20402;-85
2021/10/21 14:23:14;;;;;;;2.45;0.75;;;12.10;99.90;;;;;;5038132;28;20457;-82
2021/10/21 14:25:40;;;;;;;2.20;0.75;;;12.10;99.90;;;;;;5037719;28;20472;-83
2021/10/21 14:28:06;;;;;;;4.53;0.90;;;12.00;99.90;;;;;;5047370;28;20769;-84
2021/10/21 14:30:32;;;;;;;1.73;0.90;;;12.00;99.90;;;;;;5041224;28;20931;-82
2021/10/21 14:32:58;;;;;;;2.37;0.80;;;12.00;99.90;;;;;;5043264;28;20451;-83
2021/10/21 14:35:25;;;;;;;3.40;0.90;;;11.90;99.90;;;;;;5038993;28;20392;-83
2021/10/21 14:37:51;;;;;;;3.15;1.10;;;11.80;99.90;;;;;;5034070;28;20393;-81
2021/10/21 14:40:17;;;;;;;2.88;0.90;;;11.70;99.90;;;;;;5048007;28;20499;-83
2021/10/21 14:42:44;;;;;;;4.28;0.93;;;11.70;99.90;;;;;;5053533;28;20407;-84
2021/10/21 14:45:12;;;;;;;1.60;0.80;;;11.60;99.90;;;;;;5045964;28;20408;-84
2021/10/21 14:47:38;;;;;;;2.53;0.93;;;11.70;99.90;;;;;;5059229;28;20382;-83
2021/10/21 14:50:08;;;;;;;3.72;1.00;;;11.60;99.90;;;;;;5040949;28;20383;-84
2021/10/21 14:52:34;;;;;;;3.10;1.00;;;11.60;99.90;;;;;;5053463;28;20391;-84
2021/10/21 14:55:00;;;;;;;1.52;0.88;;;11.50;99.90;;;;;;5051272;28;20745;-84
2021/10/21 14:57:26;;;;;;;3.17;0.98;;;11.40;99.90;;;;;;5062341;28;20401;-83
2021/10/21 14:59:52;;;;;;;3.00;1.05;;;11.20;99.90;;;;;;5050780;28;20898;-82
2021/10/21 15:02:17;;;;;;;2.92;1.15;;;11.20;99.90;;;;;;5057247;28;20721;-82
2021/10/21 15:04:44;;;;;;;2.60;1.13;;;11.30;99.90;;;;;;5059394;28;20402;-84
2021/10/21 15:09:57;;;;;;;3.83;1.30;;;11.20;99.90;;;;;;5052831;28;20943;-84
2021/10/21 15:23:19;;;;;;;7.43;2.20;;;11.20;99.90;;;;;;5017939;28;20902;-83
2021/10/21 15:25:46;;;;;;;6.60;2.25;;;11.10;99.90;;;;;;5046338;28;20411;-81
2021/10/21 15:28:14;;;;;;;6.57;2.57;;;11.10;99.90;;;;;;5048428;28;20422;-81
2021/10/21 15:30:40;;;;;;;5.50;2.47;;;11.10;99.90;;;;;;5054692;28;20380;-83
2021/10/21 15:33:08;;;;;;;6.05;2.20;;;11.10;99.90;;;;;;5055364;28;20452;-83